sensor_id;sensor_type;location;lat;lon;timestamp;temperature;humidity
62339;DHT22;48368;53.406;6.214;2023-05-10T00:01:05;12.80;99.90
62339;DHT22;48368;53.406;6.214;2023-05-10T00:03:30;12.90;99.90
62339;DHT22;48368;53.406;6.214;2023-05-10T00:05:56;12.80;99.90
62339;DHT22;48368;53.406;6.214;2023-05-10T00:08:22;12.80;99.90
62339;DHT22;48368;53.406;6.214;2023-05-10T00:10:48;12.90;99.90
62339;DHT22;48368;53.406;6.214;2023-05-10T00:13:14;12.80;99.90
62339;DHT22;48368;53.406;6.214;2023-05-10T00:15:39;12.70;99.90
62339;DHT22;48368;53.406;6.214;2023-05-10T00:18:05;12.80;99.90
62339;DHT22;48368;53.406;6.214;2023-05-10T00:20:31;12.80;99.90
62339;DHT22;48368;53.406;6.214;2023-05-10T00:22:56;12.70;99.90
62339;DHT22;48368;53.406;6.214;2023-05-10T00:25:22;12.70;99.90
62339;DHT22;48368;53.406;6.214;2023-05-10T00:27:49;12.70;99.90
62339;DHT22;48368;53.406;6.214;2023-05-10T00:30:15;12.70;99.90
62339;DHT22;48368;53.406;6.214;2023-05-10T00:32:40;12.70;99.90
62339;DHT22;48368;53.406;6.214;2023-05-10T00:35:06;12.60;99.90
62339;DHT22;48368;53.406;6.214;2023-05-10T00:37:32;12.70;99.90
62339;DHT22;48368;53.406;6.214;2023-05-10T00:39:58;12.70;99.90
62339;DHT22;48368;53.406;6.214;2023-05-10T00:42:24;12.50;99.90
62339;DHT22;48368;53.406;6.214;2023-05-10T00:44:49;12.50;99.90
62339;DHT22;48368;53.406;6.214;2023-05-10T00:47:16;12.60;99.90
62339;DHT22;48368;53.406;6.214;2023-05-10T00:49:42;12.70;99.90
62339;DHT22;48368;53.406;6.214;2023-05-10T00:52:09;12.50;99.90
62339;DHT22;48368;53.406;6.214;2023-05-10T00:54:35;12.50;99.90
62339;DHT22;48368;53.406;6.214;2023-05-10T00:57:01;12.50;99.90
62339;DHT22;48368;53.406;6.214;2023-05-10T00:59:26;12.50;99.90
62339;DHT22;48368;53.406;6.214;2023-05-10T01:01:53;12.50;99.90
62339;DHT22;48368;53.406;6.214;2023-05-10T01:04:19;12.60;99.90
62339;DHT22;48368;53.406;6.214;2023-05-10T01:06:51;12.60;99.90
62339;DHT22;48368;53.406;6.214;2023-05-10T01:09:17;12.50;99.90
62339;DHT22;48368;53.406;6.214;2023-05-10T01:11:43;12.60;99.90
62339;DHT22;48368;53.406;6.214;2023-05-10T01:14:10;12.40;99.90
62339;DHT22;48368;53.406;6.214;2023-05-10T01:16:40;12.40;99.90
62339;DHT22;48368;53.406;6.214;2023-05-10T01:19:22;12.60;99.90
62339;DHT22;48368;53.406;6.214;2023-05-10T01:22:13;12.50;99.90
62339;DHT22;48368;53.406;6.214;2023-05-10T01:25:18;12.50;99.90
62339;DHT22;48368;53.406;6.214;2023-05-10T01:28:30;12.50;99.90
62339;DHT22;48368;53.406;6.214;2023-05-10T01:33:42;12.40;99.90
62339;DHT22;48368;53.406;6.214;2023-05-10T01:36:22;12.40;99.90
62339;DHT22;48368;53.406;6.214;2023-05-10T01:39:20;12.30;99.90
62339;DHT22;48368;53.406;6.214;2023-05-10T01:41:55;12.30;99.90
62339;DHT22;48368;53.406;6.214;2023-05-10T01:44:37;12.50;99.90
62339;DHT22;48368;53.406;6.214;2023-05-10T01:47:08;12.30;99.90
62339;DHT22;48368;53.406;6.214;2023-05-10T01:49:43;12.50;99.90
62339;DHT22;48368;53.406;6.214;2023-05-10T01:52:14;12.30;99.90
62339;DHT22;48368;53.406;6.214;2023-05-10T01:54:49;12.30;99.90
62339;DHT22;48368;53.406;6.214;2023-05-10T01:57:20;12.40;99.90
62339;DHT22;48368;53.406;6.214;2023-05-10T01:59:50;12.40;99.90
62339;DHT22;48368;53.406;6.214;2023-05-10T02:02:18;12.20;99.90
62339;DHT22;48368;53.406;6.214;2023-05-10T02:04:46;12.30;99.90
62339;DHT22;48368;53.406;6.214;2023-05-10T02:07:13;12.30;99.90
62339;DHT22;48368;53.406;6.214;2023-05-10T02:09:40;12.30;99.90
62339;DHT22;48368;53.406;6.214;2023-05-10T02:12:09;12.30;99.90
62339;DHT22;48368;53.406;6.214;2023-05-10T02:14:38;12.20;99.90
62339;DHT22;48368;53.406;6.214;2023-05-10T02:17:06;12.30;99.90
62339;DHT22;48368;53.406;6.214;2023-05-10T02:19:34;12.40;99.90
62339;DHT22;48368;53.406;6.214;2023-05-10T02:22:02;12.40;99.90
62339;DHT22;48368;53.406;6.214;2023-05-10T02:24:29;12.40;99.90
62339;DHT22;48368;53.406;6.214;2023-05-10T02:26:56;12.30;99.90
62339;DHT22;48368;53.406;6.214;2023-05-10T02:29:24;12.30;99.90
62339;DHT22;48368;53.406;6.214;2023-05-10T02:31:52;12.30;99.90
62339;DHT22;48368;53.406;6.214;2023-05-10T02:34:21;12.30;99.90
62339;DHT22;48368;53.406;6.214;2023-05-10T02:36:47;12.30;99.90
62339;DHT22;48368;53.406;6.214;2023-05-10T02:39:14;12.30;99.90
62339;DHT22;48368;53.406;6.214;2023-05-10T02:41:42;12.20;99.90
62339;DHT22;48368;53.406;6.214;2023-05-10T02:44:09;12.30;99.90
62339;DHT22;48368;53.406;6.214;2023-05-10T02:46:36;12.20;99.90
62339;DHT22;48368;53.406;6.214;2023-05-10T02:49:03;12.30;99.90
62339;DHT22;48368;53.406;6.214;2023-05-10T02:51:31;12.30;99.90
62339;DHT22;48368;53.406;6.214;2023-05-10T02:53:58;12.20;99.90
62339;DHT22;48368;53.406;6.214;2023-05-10T02:56:33;12.20;99.90
62339;DHT22;48368;53.406;6.214;2023-05-10T02:58:59;12.10;99.90
62339;DHT22;48368;53.406;6.214;2023-05-10T03:01:25;12.10;99.90
62339;DHT22;48368;53.406;6.214;2023-05-10T03:03:51;12.30;99.90
62339;DHT22;48368;53.406;6.214;2023-05-10T03:06:16;12.20;99.90
62339;DHT22;48368;53.406;6.214;2023-05-10T03:08:43;12.10;99.90
62339;DHT22;48368;53.406;6.214;2023-05-10T03:13:48;12.20;99.90
62339;DHT22;48368;53.406;6.214;2023-05-10T03:16:27;12.20;99.90
62339;DHT22;48368;53.406;6.214;2023-05-10T03:19:09;12.10;99.90
62339;DHT22;48368;53.406;6.214;2023-05-10T03:21:41;12.10;99.90
62339;DHT22;48368;53.406;6.214;2023-05-10T03:24:08;12.10;99.90
62339;DHT22;48368;53.406;6.214;2023-05-10T03:26:34;12.10;99.90
62339;DHT22;48368;53.406;6.214;2023-05-10T03:29:06;12.20;99.90
62339;DHT22;48368;53.406;6.214;2023-05-10T03:31:33;12.10;99.90
62339;DHT22;48368;53.406;6.214;2023-05-10T03:33:59;12.00;99.90
62339;DHT22;48368;53.406;6.214;2023-05-10T03:36:24;12.00;99.90
62339;DHT22;48368;53.406;6.214;2023-05-10T03:38:50;12.10;99.90
62339;DHT22;48368;53.406;6.214;2023-05-10T03:41:16;12.00;99.90
62339;DHT22;48368;53.406;6.214;2023-05-10T03:43:41;12.00;99.90
62339;DHT22;48368;53.406;6.214;2023-05-10T03:46:07;12.10;99.90
62339;DHT22;48368;53.406;6.214;2023-05-10T03:48:33;12.10;99.90
62339;DHT22;48368;53.406;6.214;2023-05-10T03:50:59;12.00;99.90
62339;DHT22;48368;53.406;6.214;2023-05-10T03:53:24;12.10;99.90
62339;DHT22;48368;53.406;6.214;2023-05-10T03:55:50;12.00;99.90
62339;DHT22;48368;53.406;6.214;2023-05-10T03:58:16;12.10;99.90
62339;DHT22;48368;53.406;6.214;2023-05-10T04:00:42;12.10;99.90
62339;DHT22;48368;53.406;6.214;2023-05-10T04:03:13;12.10;99.90
62339;DHT22;48368;53.406;6.214;2023-05-10T04:05:39;12.00;99.90
62339;DHT22;48368;53.406;6.214;2023-05-10T04:08:05;12.10;99.90
62339;DHT22;48368;53.406;6.214;2023-05-10T04:10:32;12.00;99.90
62339;DHT22;48368;53.406;6.214;2023-05-10T04:12:58;12.00;99.90
62339;DHT22;48368;53.406;6.214;2023-05-10T04:15:23;12.10;99.90
62339;DHT22;48368;53.406;6.214;2023-05-10T04:17:49;12.20;99.90
62339;DHT22;48368;53.406;6.214;2023-05-10T04:20:15;12.10;99.90
62339;DHT22;48368;53.406;6.214;2023-05-10T04:22:41;12.10;99.90
62339;DHT22;48368;53.406;6.214;2023-05-10T04:25:07;12.00;99.90
62339;DHT22;48368;53.406;6.214;2023-05-10T04:27:35;12.10;99.90
62339;DHT22;48368;53.406;6.214;2023-05-10T04:30:00;12.00;99.90
62339;DHT22;48368;53.406;6.214;2023-05-10T04:32:26;12.00;99.90
62339;DHT22;48368;53.406;6.214;2023-05-10T04:34:52;12.10;99.90
62339;DHT22;48368;53.406;6.214;2023-05-10T04:37:18;12.10;99.90
62339;DHT22;48368;53.406;6.214;2023-05-10T04:39:44;12.00;99.90
62339;DHT22;48368;53.406;6.214;2023-05-10T04:42:10;12.10;99.90
62339;DHT22;48368;53.406;6.214;2023-05-10T04:44:36;12.10;99.90
62339;DHT22;48368;53.406;6.214;2023-05-10T04:47:02;12.10;99.90
62339;DHT22;48368;53.406;6.214;2023-05-10T04:49:29;12.10;99.90
62339;DHT22;48368;53.406;6.214;2023-05-10T04:51:55;12.10;99.90
62339;DHT22;48368;53.406;6.214;2023-05-10T04:54:21;12.10;99.90
62339;DHT22;48368;53.406;6.214;2023-05-10T04:56:46;12.10;99.90
62339;DHT22;48368;53.406;6.214;2023-05-10T04:59:12;12.10;99.90
62339;DHT22;48368;53.406;6.214;2023-05-10T05:01:38;12.10;99.90
62339;DHT22;48368;53.406;6.214;2023-05-10T05:04:04;12.10;99.90
62339;DHT22;48368;53.406;6.214;2023-05-10T05:06:29;12.10;99.90
62339;DHT22;48368;53.406;6.214;2023-05-10T05:08:55;12.10;99.90
62339;DHT22;48368;53.406;6.214;2023-05-10T05:11:20;12.00;99.90
62339;DHT22;48368;53.406;6.214;2023-05-10T05:13:47;12.00;99.90
62339;DHT22;48368;53.406;6.214;2023-05-10T05:16:13;12.00;99.90
62339;DHT22;48368;53.406;6.214;2023-05-10T05:18:38;12.00;99.90
62339;DHT22;48368;53.406;6.214;2023-05-10T05:21:14;12.10;99.90
62339;DHT22;48368;53.406;6.214;2023-05-10T05:23:40;12.00;99.90
62339;DHT22;48368;53.406;6.214;2023-05-10T05:26:06;12.10;99.90
62339;DHT22;48368;53.406;6.214;2023-05-10T05:28:40;12.00;99.90
62339;DHT22;48368;53.406;6.214;2023-05-10T05:31:09;12.00;99.90
62339;DHT22;48368;53.406;6.214;2023-05-10T05:33:34;11.90;99.90
62339;DHT22;48368;53.406;6.214;2023-05-10T05:36:01;12.00;99.90
62339;DHT22;48368;53.406;6.214;2023-05-10T05:38:27;12.00;99.90
62339;DHT22;48368;53.406;6.214;2023-05-10T05:40:53;11.90;99.90
62339;DHT22;48368;53.406;6.214;2023-05-10T05:43:18;11.90;99.90
62339;DHT22;48368;53.406;6.214;2023-05-10T05:45:44;11.90;99.90
62339;DHT22;48368;53.406;6.214;2023-05-10T05:48:10;11.90;99.90
62339;DHT22;48368;53.406;6.214;2023-05-10T05:50:35;11.90;99.90
62339;DHT22;48368;53.406;6.214;2023-05-10T05:53:01;11.90;99.90
62339;DHT22;48368;53.406;6.214;2023-05-10T05:55:27;11.90;99.90
62339;DHT22;48368;53.406;6.214;2023-05-10T05:57:53;11.90;99.90
62339;DHT22;48368;53.406;6.214;2023-05-10T06:00:19;11.90;99.90
62339;DHT22;48368;53.406;6.214;2023-05-10T06:02:45;11.90;99.90
62339;DHT22;48368;53.406;6.214;2023-05-10T06:05:10;11.90;99.90
62339;DHT22;48368;53.406;6.214;2023-05-10T06:07:36;11.90;99.90
62339;DHT22;48368;53.406;6.214;2023-05-10T06:10:02;11.90;99.90
62339;DHT22;48368;53.406;6.214;2023-05-10T06:12:28;11.90;99.90
62339;DHT22;48368;53.406;6.214;2023-05-10T06:14:54;12.00;99.90
62339;DHT22;48368;53.406;6.214;2023-05-10T06:17:19;11.90;99.90
62339;DHT22;48368;53.406;6.214;2023-05-10T06:19:45;11.90;99.90
62339;DHT22;48368;53.406;6.214;2023-05-10T06:22:11;11.90;99.90
62339;DHT22;48368;53.406;6.214;2023-05-10T06:24:36;11.90;99.90
62339;DHT22;48368;53.406;6.214;2023-05-10T06:27:02;11.90;99.90
62339;DHT22;48368;53.406;6.214;2023-05-10T06:29:28;12.00;99.90
62339;DHT22;48368;53.406;6.214;2023-05-10T06:31:53;12.00;99.90
62339;DHT22;48368;53.406;6.214;2023-05-10T06:34:19;12.10;99.90
62339;DHT22;48368;53.406;6.214;2023-05-10T06:36:45;12.00;99.90
62339;DHT22;48368;53.406;6.214;2023-05-10T06:39:11;11.90;99.90
62339;DHT22;48368;53.406;6.214;2023-05-10T06:41:37;12.00;99.90
62339;DHT22;48368;53.406;6.214;2023-05-10T06:44:03;12.00;99.90
62339;DHT22;48368;53.406;6.214;2023-05-10T06:46:29;12.00;99.90
62339;DHT22;48368;53.406;6.214;2023-05-10T06:48:55;12.00;99.90
62339;DHT22;48368;53.406;6.214;2023-05-10T06:51:20;12.00;99.90
62339;DHT22;48368;53.406;6.214;2023-05-10T06:53:46;12.10;99.90
62339;DHT22;48368;53.406;6.214;2023-05-10T06:56:12;12.10;99.90
62339;DHT22;48368;53.406;6.214;2023-05-10T06:58:38;12.10;99.90
62339;DHT22;48368;53.406;6.214;2023-05-10T07:01:05;12.20;99.90
62339;DHT22;48368;53.406;6.214;2023-05-10T07:03:31;12.20;99.90
62339;DHT22;48368;53.406;6.214;2023-05-10T07:06:03;12.10;99.90
62339;DHT22;48368;53.406;6.214;2023-05-10T07:08:33;12.20;99.90
62339;DHT22;48368;53.406;6.214;2023-05-10T07:11:03;12.20;99.90
62339;DHT22;48368;53.406;6.214;2023-05-10T07:13:33;12.20;99.90
62339;DHT22;48368;53.406;6.214;2023-05-10T07:15:59;12.20;99.90
62339;DHT22;48368;53.406;6.214;2023-05-10T07:18:26;12.30;99.90
62339;DHT22;48368;53.406;6.214;2023-05-10T07:20:52;12.20;99.90
62339;DHT22;48368;53.406;6.214;2023-05-10T07:23:18;12.20;99.90
62339;DHT22;48368;53.406;6.214;2023-05-10T07:25:51;12.20;99.90
62339;DHT22;48368;53.406;6.214;2023-05-10T07:28:21;12.10;99.90
62339;DHT22;48368;53.406;6.214;2023-05-10T07:30:47;12.20;99.90
62339;DHT22;48368;53.406;6.214;2023-05-10T07:33:14;12.20;99.90
62339;DHT22;48368;53.406;6.214;2023-05-10T07:35:40;12.20;99.90
62339;DHT22;48368;53.406;6.214;2023-05-10T07:38:06;12.30;99.90
62339;DHT22;48368;53.406;6.214;2023-05-10T07:40:32;12.30;99.90
62339;DHT22;48368;53.406;6.214;2023-05-10T07:42:57;12.20;99.90
62339;DHT22;48368;53.406;6.214;2023-05-10T07:45:23;12.40;99.90
62339;DHT22;48368;53.406;6.214;2023-05-10T07:47:49;12.30;99.90
62339;DHT22;48368;53.406;6.214;2023-05-10T07:50:15;12.30;99.90
62339;DHT22;48368;53.406;6.214;2023-05-10T07:52:41;12.40;99.90
62339;DHT22;48368;53.406;6.214;2023-05-10T07:55:07;12.50;99.90
62339;DHT22;48368;53.406;6.214;2023-05-10T07:57:34;12.50;99.90
62339;DHT22;48368;53.406;6.214;2023-05-10T08:00:00;12.40;99.90
62339;DHT22;48368;53.406;6.214;2023-05-10T08:02:25;12.50;99.90
62339;DHT22;48368;53.406;6.214;2023-05-10T08:04:51;12.40;99.90
62339;DHT22;48368;53.406;6.214;2023-05-10T08:07:17;12.50;99.90
62339;DHT22;48368;53.406;6.214;2023-05-10T08:09:43;12.40;99.90
62339;DHT22;48368;53.406;6.214;2023-05-10T08:12:08;12.40;99.90
62339;DHT22;48368;53.406;6.214;2023-05-10T08:14:34;12.40;99.90
62339;DHT22;48368;53.406;6.214;2023-05-10T08:17:02;12.30;99.90
62339;DHT22;48368;53.406;6.214;2023-05-10T08:19:28;12.30;99.90
62339;DHT22;48368;53.406;6.214;2023-05-10T08:21:54;12.20;99.90
62339;DHT22;48368;53.406;6.214;2023-05-10T08:24:21;12.30;99.90
62339;DHT22;48368;53.406;6.214;2023-05-10T08:26:47;12.30;99.90
62339;DHT22;48368;53.406;6.214;2023-05-10T08:29:13;12.30;99.90
62339;DHT22;48368;53.406;6.214;2023-05-10T08:31:39;12.40;99.90
62339;DHT22;48368;53.406;6.214;2023-05-10T08:34:05;12.30;99.90
62339;DHT22;48368;53.406;6.214;2023-05-10T08:36:30;12.30;99.90
62339;DHT22;48368;53.406;6.214;2023-05-10T08:38:57;12.40;99.90
62339;DHT22;48368;53.406;6.214;2023-05-10T08:41:24;12.40;99.90
62339;DHT22;48368;53.406;6.214;2023-05-10T08:43:52;12.40;99.90
62339;DHT22;48368;53.406;6.214;2023-05-10T08:46:19;12.40;99.90
62339;DHT22;48368;53.406;6.214;2023-05-10T08:48:47;12.60;99.90
62339;DHT22;48368;53.406;6.214;2023-05-10T08:51:40;12.60;99.90
62339;DHT22;48368;53.406;6.214;2023-05-10T08:54:07;12.60;99.90
62339;DHT22;48368;53.406;6.214;2023-05-10T08:56:33;12.60;99.90
62339;DHT22;48368;53.406;6.214;2023-05-10T08:58:59;12.70;99.90
62339;DHT22;48368;53.406;6.214;2023-05-10T09:01:27;12.80;99.90
62339;DHT22;48368;53.406;6.214;2023-05-10T09:03:53;12.80;99.90
62339;DHT22;48368;53.406;6.214;2023-05-10T09:06:18;12.90;99.90
62339;DHT22;48368;53.406;6.214;2023-05-10T09:08:44;13.10;99.90
62339;DHT22;48368;53.406;6.214;2023-05-10T09:11:12;13.00;99.90
62339;DHT22;48368;53.406;6.214;2023-05-10T09:13:38;13.20;99.90
62339;DHT22;48368;53.406;6.214;2023-05-10T09:16:04;13.30;99.90
62339;DHT22;48368;53.406;6.214;2023-05-10T09:18:30;13.30;99.90
62339;DHT22;48368;53.406;6.214;2023-05-10T09:20:56;13.40;99.90
62339;DHT22;48368;53.406;6.214;2023-05-10T09:23:22;13.60;99.90
62339;DHT22;48368;53.406;6.214;2023-05-10T09:25:47;13.60;99.90
62339;DHT22;48368;53.406;6.214;2023-05-10T09:28:18;13.50;99.90
62339;DHT22;48368;53.406;6.214;2023-05-10T09:30:53;13.50;99.90
62339;DHT22;48368;53.406;6.214;2023-05-10T09:33:18;13.50;99.90
62339;DHT22;48368;53.406;6.214;2023-05-10T09:35:44;13.40;99.90
62339;DHT22;48368;53.406;6.214;2023-05-10T09:38:10;13.30;99.90
62339;DHT22;48368;53.406;6.214;2023-05-10T09:40:36;13.30;99.90
62339;DHT22;48368;53.406;6.214;2023-05-10T09:43:11;13.30;99.90
62339;DHT22;48368;53.406;6.214;2023-05-10T09:45:41;13.40;99.90
62339;DHT22;48368;53.406;6.214;2023-05-10T09:48:06;13.20;99.90
62339;DHT22;48368;53.406;6.214;2023-05-10T09:50:32;13.20;99.90
62339;DHT22;48368;53.406;6.214;2023-05-10T09:53:01;13.20;99.90
62339;DHT22;48368;53.406;6.214;2023-05-10T09:55:42;13.30;99.90
62339;DHT22;48368;53.406;6.214;2023-05-10T09:58:10;13.30;99.90
62339;DHT22;48368;53.406;6.214;2023-05-10T10:00:38;13.40;99.90
62339;DHT22;48368;53.406;6.214;2023-05-10T10:03:04;13.30;99.90
62339;DHT22;48368;53.406;6.214;2023-05-10T10:05:32;13.30;99.90
62339;DHT22;48368;53.406;6.214;2023-05-10T10:07:58;13.30;99.90
62339;DHT22;48368;53.406;6.214;2023-05-10T10:10:25;13.30;99.90
62339;DHT22;48368;53.406;6.214;2023-05-10T10:12:51;13.40;99.90
62339;DHT22;48368;53.406;6.214;2023-05-10T10:15:18;13.40;99.90
62339;DHT22;48368;53.406;6.214;2023-05-10T10:17:44;13.40;99.90
62339;DHT22;48368;53.406;6.214;2023-05-10T10:20:11;13.30;99.90
62339;DHT22;48368;53.406;6.214;2023-05-10T10:22:37;13.30;99.90
62339;DHT22;48368;53.406;6.214;2023-05-10T10:25:04;13.30;99.90
62339;DHT22;48368;53.406;6.214;2023-05-10T10:35:47;13.30;99.90
62339;DHT22;48368;53.406;6.214;2023-05-10T10:38:13;13.20;99.90
62339;DHT22;48368;53.406;6.214;2023-05-10T10:40:39;13.30;99.90
62339;DHT22;48368;53.406;6.214;2023-05-10T10:43:28;13.40;99.90
62339;DHT22;48368;53.406;6.214;2023-05-10T10:46:13;13.40;99.90
62339;DHT22;48368;53.406;6.214;2023-05-10T10:48:41;13.30;99.90
62339;DHT22;48368;53.406;6.214;2023-05-10T10:51:09;13.40;99.90
62339;DHT22;48368;53.406;6.214;2023-05-10T10:53:36;13.50;99.90
62339;DHT22;48368;53.406;6.214;2023-05-10T10:56:09;13.50;99.90
62339;DHT22;48368;53.406;6.214;2023-05-10T10:58:36;13.50;99.90
62339;DHT22;48368;53.406;6.214;2023-05-10T11:01:17;13.50;99.90
62339;DHT22;48368;53.406;6.214;2023-05-10T11:06:33;13.50;99.90
62339;DHT22;48368;53.406;6.214;2023-05-10T11:09:05;13.50;99.90
62339;DHT22;48368;53.406;6.214;2023-05-10T11:11:31;13.60;99.90
62339;DHT22;48368;53.406;6.214;2023-05-10T11:14:03;13.60;99.90
62339;DHT22;48368;53.406;6.214;2023-05-10T11:16:43;13.50;99.90
62339;DHT22;48368;53.406;6.214;2023-05-10T11:19:16;13.60;99.90
62339;DHT22;48368;53.406;6.214;2023-05-10T11:24:22;13.50;99.90
62339;DHT22;48368;53.406;6.214;2023-05-10T11:26:51;13.60;99.90
62339;DHT22;48368;53.406;6.214;2023-05-10T11:29:17;13.60;99.90
62339;DHT22;48368;53.406;6.214;2023-05-10T11:31:46;13.60;99.90
62339;DHT22;48368;53.406;6.214;2023-05-10T11:34:23;13.50;99.90
62339;DHT22;48368;53.406;6.214;2023-05-10T11:36:54;13.60;99.90
62339;DHT22;48368;53.406;6.214;2023-05-10T11:39:20;13.80;99.90
62339;DHT22;48368;53.406;6.214;2023-05-10T11:41:50;13.70;99.90
62339;DHT22;48368;53.406;6.214;2023-05-10T11:44:16;13.80;99.90
62339;DHT22;48368;53.406;6.214;2023-05-10T11:46:42;13.90;99.90
62339;DHT22;48368;53.406;6.214;2023-05-10T11:49:07;13.80;99.90
62339;DHT22;48368;53.406;6.214;2023-05-10T11:51:34;13.80;99.90
62339;DHT22;48368;53.406;6.214;2023-05-10T11:54:08;14.00;99.90
62339;DHT22;48368;53.406;6.214;2023-05-10T11:56:34;14.00;99.90
62339;DHT22;48368;53.406;6.214;2023-05-10T11:59:00;14.00;99.90
62339;DHT22;48368;53.406;6.214;2023-05-10T12:01:28;14.10;99.90
62339;DHT22;48368;53.406;6.214;2023-05-10T12:03:55;14.20;99.90
62339;DHT22;48368;53.406;6.214;2023-05-10T12:06:27;14.20;99.90
62339;DHT22;48368;53.406;6.214;2023-05-10T12:08:54;14.10;99.90
62339;DHT22;48368;53.406;6.214;2023-05-10T12:11:20;14.20;99.90
62339;DHT22;48368;53.406;6.214;2023-05-10T12:13:49;14.20;99.90
62339;DHT22;48368;53.406;6.214;2023-05-10T12:16:17;14.40;99.90
62339;DHT22;48368;53.406;6.214;2023-05-10T12:18:42;14.50;99.90
62339;DHT22;48368;53.406;6.214;2023-05-10T12:21:12;14.70;99.90
62339;DHT22;48368;53.406;6.214;2023-05-10T12:23:39;14.60;99.90
62339;DHT22;48368;53.406;6.214;2023-05-10T12:26:05;14.90;99.90
62339;DHT22;48368;53.406;6.214;2023-05-10T12:28:31;15.00;99.90
62339;DHT22;48368;53.406;6.214;2023-05-10T12:30:59;15.20;99.90
62339;DHT22;48368;53.406;6.214;2023-05-10T12:33:25;15.20;99.90
62339;DHT22;48368;53.406;6.214;2023-05-10T12:35:52;15.10;99.90
62339;DHT22;48368;53.406;6.214;2023-05-10T12:38:25;15.10;99.90
62339;DHT22;48368;53.406;6.214;2023-05-10T12:40:52;15.30;99.90
62339;DHT22;48368;53.406;6.214;2023-05-10T12:43:17;15.50;99.90
62339;DHT22;48368;53.406;6.214;2023-05-10T12:45:43;15.50;99.90
62339;DHT22;48368;53.406;6.214;2023-05-10T12:48:13;15.50;99.90
62339;DHT22;48368;53.406;6.214;2023-05-10T12:50:39;15.60;99.90
62339;DHT22;48368;53.406;6.214;2023-05-10T12:53:04;15.60;99.90
62339;DHT22;48368;53.406;6.214;2023-05-10T12:55:30;15.60;99.90
62339;DHT22;48368;53.406;6.214;2023-05-10T12:57:56;15.60;99.90
62339;DHT22;48368;53.406;6.214;2023-05-10T13:00:21;15.70;99.90
62339;DHT22;48368;53.406;6.214;2023-05-10T13:02:47;15.80;99.90
62339;DHT22;48368;53.406;6.214;2023-05-10T13:05:13;15.70;99.90
62339;DHT22;48368;53.406;6.214;2023-05-10T13:07:38;15.90;99.90
62339;DHT22;48368;53.406;6.214;2023-05-10T13:10:05;16.00;99.90
62339;DHT22;48368;53.406;6.214;2023-05-10T13:12:31;16.20;99.90
62339;DHT22;48368;53.406;6.214;2023-05-10T13:14:57;16.00;99.90
62339;DHT22;48368;53.406;6.214;2023-05-10T13:17:24;15.90;99.90
62339;DHT22;48368;53.406;6.214;2023-05-10T13:19:50;16.00;99.90
62339;DHT22;48368;53.406;6.214;2023-05-10T13:22:16;16.10;99.90
62339;DHT22;48368;53.406;6.214;2023-05-10T13:24:41;16.20;99.90
62339;DHT22;48368;53.406;6.214;2023-05-10T13:27:07;16.30;99.90
62339;DHT22;48368;53.406;6.214;2023-05-10T13:29:33;16.10;99.90
62339;DHT22;48368;53.406;6.214;2023-05-10T13:31:59;16.20;99.90
62339;DHT22;48368;53.406;6.214;2023-05-10T13:34:24;16.10;99.90
62339;DHT22;48368;53.406;6.214;2023-05-10T13:36:50;16.00;99.90
62339;DHT22;48368;53.406;6.214;2023-05-10T13:39:16;15.90;99.90
62339;DHT22;48368;53.406;6.214;2023-05-10T13:41:42;15.80;99.90
62339;DHT22;48368;53.406;6.214;2023-05-10T13:44:08;15.70;99.90
62339;DHT22;48368;53.406;6.214;2023-05-10T13:46:33;15.60;99.90
62339;DHT22;48368;53.406;6.214;2023-05-10T13:48:59;15.80;99.90
62339;DHT22;48368;53.406;6.214;2023-05-10T13:51:25;15.70;99.90
62339;DHT22;48368;53.406;6.214;2023-05-10T13:53:50;15.70;99.90
62339;DHT22;48368;53.406;6.214;2023-05-10T13:56:16;15.70;99.90
62339;DHT22;48368;53.406;6.214;2023-05-10T13:58:41;15.60;99.90
62339;DHT22;48368;53.406;6.214;2023-05-10T14:01:07;15.70;99.90
62339;DHT22;48368;53.406;6.214;2023-05-10T14:03:33;15.50;99.90
62339;DHT22;48368;53.406;6.214;2023-05-10T14:05:58;15.50;99.90
62339;DHT22;48368;53.406;6.214;2023-05-10T14:08:24;15.50;99.90
62339;DHT22;48368;53.406;6.214;2023-05-10T14:10:52;15.50;99.90
62339;DHT22;48368;53.406;6.214;2023-05-10T14:13:18;15.40;99.90
62339;DHT22;48368;53.406;6.214;2023-05-10T14:15:43;15.30;99.90
62339;DHT22;48368;53.406;6.214;2023-05-10T14:18:09;15.10;99.90
62339;DHT22;48368;53.406;6.214;2023-05-10T14:20:35;15.00;99.90
62339;DHT22;48368;53.406;6.214;2023-05-10T14:23:00;15.00;99.90
62339;DHT22;48368;53.406;6.214;2023-05-10T14:25:26;15.10;99.90
62339;DHT22;48368;53.406;6.214;2023-05-10T14:27:52;15.00;99.90
62339;DHT22;48368;53.406;6.214;2023-05-10T14:30:20;15.00;99.90
62339;DHT22;48368;53.406;6.214;2023-05-10T14:32:45;14.90;99.90
62339;DHT22;48368;53.406;6.214;2023-05-10T14:35:11;15.20;99.90
62339;DHT22;48368;53.406;6.214;2023-05-10T14:37:38;15.10;99.90
62339;DHT22;48368;53.406;6.214;2023-05-10T14:40:04;15.00;99.90
62339;DHT22;48368;53.406;6.214;2023-05-10T14:42:30;14.90;99.90
62339;DHT22;48368;53.406;6.214;2023-05-10T14:44:56;14.80;99.90
62339;DHT22;48368;53.406;6.214;2023-05-10T14:47:22;14.80;99.90
62339;DHT22;48368;53.406;6.214;2023-05-10T14:49:48;14.90;99.90
62339;DHT22;48368;53.406;6.214;2023-05-10T14:52:13;14.80;99.90
62339;DHT22;48368;53.406;6.214;2023-05-10T14:54:39;14.60;99.90
62339;DHT22;48368;53.406;6.214;2023-05-10T14:57:06;14.60;99.90
62339;DHT22;48368;53.406;6.214;2023-05-10T14:59:32;14.50;99.90
62339;DHT22;48368;53.406;6.214;2023-05-10T15:01:58;14.30;99.90
62339;DHT22;48368;53.406;6.214;2023-05-10T15:04:24;14.40;99.90
62339;DHT22;48368;53.406;6.214;2023-05-10T15:06:49;14.30;99.90
62339;DHT22;48368;53.406;6.214;2023-05-10T15:09:15;14.20;99.90
62339;DHT22;48368;53.406;6.214;2023-05-10T15:11:42;14.30;99.90
62339;DHT22;48368;53.406;6.214;2023-05-10T15:14:07;14.10;99.90
62339;DHT22;48368;53.406;6.214;2023-05-10T15:16:33;14.20;99.90
62339;DHT22;48368;53.406;6.214;2023-05-10T15:18:58;14.30;99.90
62339;DHT22;48368;53.406;6.214;2023-05-10T15:21:24;14.10;99.90
62339;DHT22;48368;53.406;6.214;2023-05-10T15:23:50;14.10;99.90
62339;DHT22;48368;53.406;6.214;2023-05-10T15:26:15;13.90;99.90
62339;DHT22;48368;53.406;6.214;2023-05-10T15:28:42;13.90;99.90
62339;DHT22;48368;53.406;6.214;2023-05-10T15:31:09;13.80;99.90
62339;DHT22;48368;53.406;6.214;2023-05-10T15:33:36;13.90;99.90
62339;DHT22;48368;53.406;6.214;2023-05-10T15:36:02;13.80;99.90
62339;DHT22;48368;53.406;6.214;2023-05-10T15:38:29;13.70;99.90
62339;DHT22;48368;53.406;6.214;2023-05-10T15:40:57;13.80;99.90
62339;DHT22;48368;53.406;6.214;2023-05-10T15:43:23;13.80;99.90
62339;DHT22;48368;53.406;6.214;2023-05-10T15:45:49;14.00;99.90
62339;DHT22;48368;53.406;6.214;2023-05-10T15:48:14;13.80;99.90
62339;DHT22;48368;53.406;6.214;2023-05-10T15:50:40;13.80;99.90